createdAt,value
2022-10-10T00:02:16.572Z,95.38
2022-10-10T00:04:49.046Z,95.38
2022-10-10T00:07:18.782Z,95.54
2022-10-10T00:09:48.821Z,95.56
2022-10-10T00:12:18.592Z,95.54
2022-10-10T00:14:48.319Z,95.68
2022-10-10T00:17:18.057Z,95.67
2022-10-10T00:19:50.391Z,95.73
2022-10-10T00:22:20.460Z,95.71
2022-10-10T00:24:50.235Z,95.73
2022-10-10T00:27:19.957Z,95.85
2022-10-10T00:29:49.690Z,95.80
2022-10-10T00:32:19.495Z,95.93
2022-10-10T00:34:51.831Z,95.89
2022-10-10T00:37:21.579Z,95.89
2022-10-10T00:39:51.601Z,95.96
2022-10-10T00:42:22.115Z,96.06
2022-10-10T00:45:23.515Z,96.06
2022-10-10T00:47:56.130Z,96.09
2022-10-10T00:50:29.959Z,96.14
2022-10-10T00:53:00.945Z,96.15
2022-10-10T00:55:31.034Z,96.14
2022-10-10T00:58:01.077Z,96.10
2022-10-10T01:00:30.914Z,96.22
2022-10-10T01:03:00.692Z,96.16
2022-10-10T01:05:36.318Z,96.22
2022-10-10T01:08:09.548Z,96.26
2022-10-10T01:10:48.635Z,96.33
2022-10-10T01:13:28.135Z,96.28
2022-10-10T01:16:04.049Z,96.33
2022-10-10T01:18:44.809Z,96.33
2022-10-10T01:21:27.659Z,96.36
2022-10-10T01:24:16.753Z,96.31
2022-10-10T01:27:21.529Z,96.34
2022-10-10T01:29:55.797Z,96.32
2022-10-10T01:32:32.561Z,96.38
2022-10-10T01:35:25.541Z,96.38
2022-10-10T01:38:02.854Z,96.35
2022-10-10T01:40:38.893Z,96.38
2022-10-10T01:43:11.666Z,96.30
2022-10-10T01:45:47.052Z,96.39
2022-10-10T01:48:18.507Z,96.46
2022-10-10T01:51:06.813Z,96.44
2022-10-10T01:53:46.648Z,96.30
2022-10-10T01:56:27.358Z,96.32
2022-10-10T01:59:14.458Z,96.27
2022-10-10T02:01:54.265Z,96.33
2022-10-10T02:04:31.695Z,96.30
2022-10-10T02:07:06.709Z,96.32
2022-10-10T02:09:40.498Z,96.30
2022-10-10T02:12:13.843Z,96.23
2022-10-10T02:14:47.533Z,96.34
2022-10-10T02:17:20.754Z,96.32
2022-10-10T02:19:54.362Z,96.34
2022-10-10T02:22:26.556Z,96.13
2022-10-10T02:24:57.206Z,96.32
2022-10-10T02:27:33.047Z,96.32
2022-10-10T02:30:05.437Z,96.26
2022-10-10T02:32:41.350Z,96.33
2022-10-10T02:35:15.655Z,96.26
2022-10-10T02:37:46.369Z,96.27
2022-10-10T02:40:20.233Z,96.29
2022-10-10T02:42:52.693Z,96.33
2022-10-10T02:45:23.835Z,96.35
2022-10-10T02:47:56.546Z,96.26
2022-10-10T02:50:26.514Z,96.25
2022-10-10T02:52:56.254Z,96.24
2022-10-10T02:55:26.464Z,96.31
2022-10-10T02:57:56.366Z,96.29
2022-10-10T03:00:26.111Z,96.26
2022-10-10T03:02:58.512Z,96.32
2022-10-10T03:05:28.245Z,96.30
2022-10-10T03:07:57.974Z,96.17
2022-10-10T03:10:27.725Z,96.30
2022-10-10T03:12:57.510Z,96.25
2022-10-10T03:15:27.381Z,96.38
2022-10-10T03:17:59.815Z,96.27
2022-10-10T03:20:29.632Z,96.36
2022-10-10T03:22:59.390Z,96.22
2022-10-10T03:25:29.215Z,96.32
2022-10-10T03:27:58.997Z,96.34
2022-10-10T03:30:28.754Z,96.28
2022-10-10T03:33:01.197Z,96.39
2022-10-10T03:35:30.983Z,96.37
2022-10-10T03:38:01.823Z,96.30
2022-10-10T03:40:32.253Z,96.42
2022-10-10T03:43:02.128Z,96.33
2022-10-10T03:45:31.877Z,96.30
2022-10-10T03:48:04.250Z,96.37
2022-10-10T03:50:34.220Z,96.41
2022-10-10T03:53:03.931Z,96.47
2022-10-10T03:55:33.646Z,96.36
2022-10-10T03:58:03.386Z,96.39
2022-10-10T04:00:33.316Z,96.50
2022-10-10T04:03:06.944Z,96.44
2022-10-10T04:05:39.166Z,96.49
2022-10-10T04:08:09.891Z,96.50
2022-10-10T04:10:39.616Z,96.41
2022-10-10T04:13:09.371Z,96.57
2022-10-10T04:15:39.410Z,96.48
2022-10-10T04:18:12.151Z,96.45
2022-10-10T04:20:41.853Z,96.49
2022-10-10T04:23:11.609Z,96.48
2022-10-10T04:25:42.091Z,96.47
2022-10-10T04:28:14.190Z,96.51
2022-10-10T04:30:44.314Z,96.55
2022-10-10T04:33:16.693Z,96.55
2022-10-10T04:35:46.472Z,96.48
2022-10-10T04:38:16.219Z,96.55
2022-10-10T04:40:45.948Z,96.71
2022-10-10T04:43:15.690Z,96.52
2022-10-10T04:45:45.433Z,96.44
2022-10-10T04:48:17.880Z,96.64
2022-10-10T04:50:47.664Z,96.61
2022-10-10T04:53:17.365Z,96.66
2022-10-10T04:55:47.163Z,96.62
2022-10-10T04:58:17.028Z,96.71
2022-10-10T05:00:46.973Z,96.66
2022-10-10T05:03:19.366Z,96.72
2022-10-10T05:05:49.071Z,96.75
2022-10-10T05:08:19.158Z,96.78
2022-10-10T05:10:50.511Z,96.74
2022-10-10T05:13:20.241Z,96.79
2022-10-10T05:15:53.318Z,96.81
2022-10-10T05:18:25.893Z,96.87
2022-10-10T05:20:58.707Z,96.86
2022-10-10T05:23:32.405Z,96.83
2022-10-10T05:26:02.477Z,96.79
2022-10-10T05:28:32.283Z,96.92
2022-10-10T05:31:02.386Z,96.89
2022-10-10T05:33:36.038Z,96.93
2022-10-10T05:36:08.545Z,96.91
2022-10-10T05:38:38.674Z,97.02
2022-10-10T05:41:09.137Z,97.03
2022-10-10T05:43:38.888Z,97.03
2022-10-10T05:46:09.206Z,97.07
2022-10-10T05:48:41.888Z,97.13
2022-10-10T05:51:13.334Z,97.03
2022-10-10T05:53:43.349Z,97.12
2022-10-10T05:56:15.178Z,97.17
2022-10-10T05:58:45.037Z,97.21
2022-10-10T06:01:15.636Z,97.32
2022-10-10T06:03:52.785Z,97.20
2022-10-10T06:06:22.664Z,97.23
2022-10-10T06:08:52.758Z,97.21
2022-10-10T06:11:23.755Z,97.32
2022-10-10T06:13:54.485Z,97.34
2022-10-10T06:16:24.715Z,97.44
2022-10-10T06:18:58.144Z,97.43
2022-10-10T06:21:28.957Z,97.44
2022-10-10T06:23:59.592Z,97.52
2022-10-10T06:26:29.929Z,97.56
2022-10-10T06:28:59.788Z,97.53
2022-10-10T06:31:30.124Z,97.68
2022-10-10T06:34:02.466Z,97.74
2022-10-10T06:36:32.163Z,97.74
2022-10-10T06:39:01.946Z,97.86
2022-10-10T06:41:31.668Z,97.96
2022-10-10T06:44:01.452Z,98.00
2022-10-10T06:46:34.400Z,98.03
2022-10-10T06:49:07.114Z,98.22
2022-10-10T06:51:36.896Z,98.33
2022-10-10T06:54:07.126Z,98.39
2022-10-10T06:56:37.023Z,98.69
2022-10-10T06:59:06.951Z,98.75
2022-10-10T07:01:37.179Z,98.93
2022-10-10T07:04:09.649Z,99.15
2022-10-10T07:06:39.709Z,99.27
2022-10-10T07:09:09.631Z,99.43
2022-10-10T07:11:41.741Z,99.57
2022-10-10T07:14:11.481Z,99.81
2022-10-10T07:16:41.243Z,99.93
2022-10-10T07:19:13.893Z,100.00
2022-10-10T07:21:43.742Z,100.00
2022-10-10T07:24:13.639Z,100.00
2022-10-10T07:26:43.382Z,100.00
2022-10-10T07:29:13.377Z,100.00
2022-10-10T07:31:43.131Z,100.00
2022-10-10T07:34:15.511Z,100.00
2022-10-10T07:36:49.312Z,100.00
2022-10-10T07:39:22.519Z,100.00
2022-10-10T07:41:53.094Z,100.00
2022-10-10T07:44:23.690Z,100.00
2022-10-10T07:46:53.498Z,100.00
2022-10-10T07:49:25.873Z,100.00
2022-10-10T07:52:00.460Z,100.00
2022-10-10T07:54:31.886Z,100.00
2022-10-10T07:57:02.009Z,100.00
2022-10-10T07:59:31.843Z,100.00
2022-10-10T08:02:01.768Z,100.00
2022-10-10T08:04:35.535Z,100.00
2022-10-10T08:07:05.360Z,100.00
2022-10-10T08:09:35.167Z,100.00
2022-10-10T08:12:04.987Z,100.00
2022-10-10T08:14:35.476Z,100.00
2022-10-10T08:17:09.769Z,100.00
2022-10-10T08:19:44.652Z,100.00
2022-10-10T08:22:16.286Z,100.00
2022-10-10T08:24:46.147Z,100.00
2022-10-10T08:27:17.953Z,100.00
2022-10-10T08:29:47.846Z,100.00
2022-10-10T08:32:17.623Z,100.00
2022-10-10T08:34:50.753Z,100.00
2022-10-10T08:37:20.741Z,100.00
2022-10-10T08:39:51.603Z,100.00
2022-10-10T08:42:33.098Z,100.00
2022-10-10T08:45:06.865Z,100.00
2022-10-10T08:47:42.211Z,100.00
2022-10-10T08:50:21.715Z,100.00
2022-10-10T08:52:54.936Z,100.00
2022-10-10T08:55:31.156Z,100.00
2022-10-10T08:58:03.974Z,100.00
2022-10-10T09:00:41.284Z,100.00
2022-10-10T09:03:23.611Z,100.00
2022-10-10T09:06:08.169Z,100.00
2022-10-10T09:08:49.109Z,100.00
2022-10-10T09:11:30.423Z,100.00
2022-10-10T09:14:12.610Z,100.00
2022-10-10T09:16:49.784Z,100.00
2022-10-10T09:19:30.845Z,100.00
2022-10-10T09:22:08.374Z,100.00
2022-10-10T09:24:44.411Z,100.00
2022-10-10T09:27:19.118Z,100.00
2022-10-10T09:29:54.574Z,100.00
2022-10-10T09:32:27.104Z,100.00
2022-10-10T09:35:02.065Z,100.00
2022-10-10T09:37:47.749Z,100.00
2022-10-10T09:40:25.443Z,100.00
2022-10-10T09:42:55.467Z,100.00
2022-10-10T09:45:32.799Z,100.00
2022-10-10T09:48:02.520Z,100.00
2022-10-10T09:50:32.328Z,100.00
2022-10-10T09:53:04.880Z,100.00
2022-10-10T09:55:38.205Z,100.00
2022-10-10T09:58:19.496Z,100.00
2022-10-10T10:00:49.686Z,100.00
2022-10-10T10:03:21.140Z,100.00
2022-10-10T10:05:59.102Z,100.00
2022-10-10T10:08:35.026Z,100.00
2022-10-10T10:11:06.299Z,100.00
2022-10-10T10:13:38.522Z,100.00
2022-10-10T10:16:11.946Z,100.00
2022-10-10T10:18:44.713Z,100.00
2022-10-10T10:21:21.354Z,100.00
2022-10-10T10:24:00.343Z,100.00
2022-10-10T10:26:36.248Z,100.00
2022-10-10T10:29:06.191Z,100.00
2022-10-10T10:31:56.611Z,100.00
2022-10-10T10:34:51.442Z,100.00
2022-10-10T10:37:25.469Z,100.00
2022-10-10T10:40:15.106Z,100.00
2022-10-10T10:42:57.692Z,100.00
2022-10-10T10:45:35.918Z,100.00
2022-10-10T10:48:19.248Z,100.00
2022-10-10T10:50:55.384Z,100.00
2022-10-10T10:53:32.373Z,100.00
2022-10-10T10:56:14.709Z,100.00
2022-10-10T10:59:23.536Z,100.00
2022-10-10T11:01:58.138Z,100.00
2022-10-10T11:05:20.346Z,100.00
2022-10-10T11:07:53.247Z,100.00
2022-10-10T11:10:32.786Z,100.00
2022-10-10T11:13:17.505Z,100.00
2022-10-10T11:16:06.087Z,100.00
2022-10-10T11:18:43.411Z,100.00
2022-10-10T11:21:20.110Z,100.00
2022-10-10T11:23:55.828Z,100.00
2022-10-10T11:26:30.943Z,100.00
2022-10-10T11:29:08.648Z,100.00
2022-10-10T11:31:43.321Z,100.00
2022-10-10T11:34:22.718Z,100.00
2022-10-10T11:36:56.718Z,100.00
2022-10-10T11:39:30.008Z,100.00
2022-10-10T11:42:03.782Z,100.00
2022-10-10T11:44:40.720Z,100.00
2022-10-10T11:47:18.079Z,100.00
2022-10-10T11:49:56.314Z,100.00
2022-10-10T11:52:34.609Z,100.00
2022-10-10T11:55:12.077Z,100.00
2022-10-10T11:57:46.132Z,100.00
2022-10-10T12:00:20.959Z,100.00
2022-10-10T12:02:51.131Z,100.00
2022-10-10T12:05:26.042Z,100.00
2022-10-10T12:08:07.934Z,100.00
2022-10-10T12:10:43.072Z,100.00
2022-10-10T12:13:29.080Z,100.00
2022-10-10T12:16:08.127Z,100.00
2022-10-10T12:18:44.432Z,100.00
2022-10-10T12:21:17.024Z,100.00
2022-10-10T12:23:49.543Z,100.00
2022-10-10T12:26:22.079Z,100.00
2022-10-10T12:29:06.287Z,100.00
2022-10-10T12:31:40.206Z,100.00
2022-10-10T12:34:18.213Z,100.00
2022-10-10T12:37:23.378Z,100.00
2022-10-10T12:40:21.585Z,100.00
2022-10-10T12:43:22.534Z,100.00
2022-10-10T12:46:11.392Z,100.00
2022-10-10T12:48:44.021Z,100.00
2022-10-10T12:51:23.817Z,100.00
2022-10-10T12:53:57.740Z,100.00
2022-10-10T12:56:40.502Z,100.00
2022-10-10T12:59:21.326Z,100.00
2022-10-10T13:01:57.188Z,100.00
2022-10-10T13:04:30.143Z,100.00
2022-10-10T13:07:02.016Z,100.00
2022-10-10T13:09:37.254Z,100.00
2022-10-10T13:12:09.412Z,100.00
2022-10-10T13:14:43.859Z,100.00
2022-10-10T13:17:28.728Z,100.00
2022-10-10T13:20:03.009Z,100.00
2022-10-10T13:22:35.935Z,100.00
2022-10-10T13:25:06.940Z,100.00
2022-10-10T13:27:38.010Z,100.00
2022-10-10T13:30:10.110Z,100.00
2022-10-10T13:32:40.328Z,100.00
2022-10-10T13:35:18.435Z,100.00
2022-10-10T13:37:50.914Z,100.00
2022-10-10T13:40:22.625Z,100.00
2022-10-10T13:42:53.278Z,100.00
2022-10-10T13:45:37.689Z,100.00
2022-10-10T13:48:19.819Z,100.00
2022-10-10T13:51:03.804Z,100.00
2022-10-10T13:53:50.000Z,100.00
2022-10-10T13:56:23.850Z,100.00
2022-10-10T13:58:56.509Z,100.00
2022-10-10T14:01:39.249Z,100.00
2022-10-10T14:04:19.229Z,100.00
2022-10-10T14:07:01.027Z,100.00
2022-10-10T14:09:38.865Z,100.00
2022-10-10T14:12:16.135Z,100.00
2022-10-10T14:14:48.855Z,100.00
2022-10-10T14:17:20.182Z,100.00
2022-10-10T14:19:51.370Z,100.00
2022-10-10T14:22:24.495Z,100.00
2022-10-10T14:24:54.219Z,100.00
2022-10-10T14:27:28.517Z,100.00
2022-10-10T14:29:59.783Z,100.00
2022-10-10T14:32:29.802Z,100.00
2022-10-10T14:34:59.528Z,100.00
2022-10-10T14:37:32.270Z,100.00
2022-10-10T14:40:03.178Z,100.00
2022-10-10T14:42:32.994Z,100.00
2022-10-10T14:45:03.328Z,100.00
2022-10-10T14:47:33.044Z,100.00
2022-10-10T14:50:02.838Z,100.00
2022-10-10T14:52:35.235Z,100.00
2022-10-10T14:55:04.950Z,100.00
2022-10-10T14:57:34.689Z,100.00
2022-10-10T15:00:04.444Z,100.00
2022-10-10T15:02:34.282Z,100.00
2022-10-10T15:05:04.275Z,100.00
2022-10-10T15:07:36.621Z,100.00
2022-10-10T15:12:57.263Z,100.00
2022-10-10T15:15:27.022Z,100.00
2022-10-10T15:17:56.746Z,100.00
2022-10-10T15:20:31.367Z,100.00
2022-10-10T15:23:06.255Z,100.00
2022-10-10T15:25:36.604Z,100.00
2022-10-10T15:28:06.740Z,100.00
2022-10-10T15:30:40.679Z,100.00
2022-10-10T15:33:12.584Z,100.00
2022-10-10T15:36:07.309Z,100.00
2022-10-10T15:38:36.447Z,100.00
2022-10-10T15:41:09.196Z,100.00
2022-10-10T15:43:47.216Z,100.00
2022-10-10T15:46:16.981Z,100.00
2022-10-10T15:48:46.673Z,100.00
2022-10-10T15:51:16.827Z,100.00
2022-10-10T15:53:52.161Z,100.00
2022-10-10T15:56:22.012Z,100.00
2022-10-10T15:58:51.760Z,100.00
2022-10-10T16:01:23.050Z,100.00
2022-10-10T16:03:53.110Z,100.00
2022-10-10T16:06:25.426Z,100.00
2022-10-10T16:09:10.357Z,100.00
2022-10-10T16:11:47.626Z,100.00
2022-10-10T16:14:17.369Z,100.00
2022-10-10T16:16:47.102Z,100.00
2022-10-10T16:19:16.999Z,100.00
2022-10-10T16:21:46.722Z,100.00
2022-10-10T16:24:19.209Z,100.00
2022-10-10T16:26:49.003Z,100.00
2022-10-10T16:29:18.868Z,100.00
2022-10-10T16:31:48.824Z,100.00
2022-10-10T16:34:19.636Z,100.00
2022-10-10T16:36:49.407Z,100.00
2022-10-10T16:39:21.782Z,100.00
2022-10-10T16:41:51.516Z,100.00
2022-10-10T16:44:21.260Z,100.00
2022-10-10T16:46:51.017Z,100.00
2022-10-10T16:49:21.449Z,100.00
2022-10-10T16:51:51.197Z,100.00
2022-10-10T16:54:23.752Z,100.00
2022-10-10T16:56:53.507Z,100.00
2022-10-10T16:59:23.327Z,100.00
2022-10-10T17:01:53.131Z,100.00
2022-10-10T17:04:22.910Z,100.00
2022-10-10T17:06:52.646Z,100.00
2022-10-10T17:09:25.113Z,100.00
2022-10-10T17:11:54.842Z,100.00
2022-10-10T17:14:24.585Z,100.00
2022-10-10T17:19:44.253Z,100.00
2022-10-10T17:22:14.007Z,100.00
2022-10-10T17:24:46.370Z,99.91
2022-10-10T17:27:16.332Z,99.89
2022-10-10T17:29:46.242Z,99.80
2022-10-10T17:32:15.955Z,99.64
2022-10-10T17:34:45.696Z,99.54
2022-10-10T17:37:15.489Z,99.47
2022-10-10T17:39:48.304Z,99.25
2022-10-10T17:42:18.224Z,99.25
2022-10-10T17:44:52.515Z,99.12
2022-10-10T17:47:25.738Z,99.08
2022-10-10T17:49:55.843Z,98.96
2022-10-10T17:52:25.612Z,98.90
2022-10-10T17:54:57.928Z,98.74
2022-10-10T17:57:27.715Z,98.68
2022-10-10T17:59:57.463Z,98.57
2022-10-10T18:02:27.300Z,98.49
2022-10-10T18:04:57.207Z,98.53
2022-10-10T18:07:26.992Z,98.47
2022-10-10T18:09:59.396Z,98.41
2022-10-10T18:12:29.231Z,98.38
2022-10-10T18:15:00.671Z,98.38
2022-10-10T18:17:30.396Z,98.41
2022-10-10T18:20:00.177Z,98.40
2022-10-10T18:22:30.204Z,98.33
2022-10-10T18:25:02.521Z,98.39
2022-10-10T18:27:32.690Z,98.36
2022-10-10T18:30:02.497Z,98.35
2022-10-10T18:32:32.199Z,98.35
2022-10-10T18:35:02.125Z,98.43
2022-10-10T18:37:31.989Z,98.40
2022-10-10T18:40:04.355Z,98.34
2022-10-10T18:42:34.116Z,98.37
2022-10-10T18:45:03.867Z,98.24
2022-10-10T18:47:33.482Z,98.33
2022-10-10T18:50:03.549Z,98.30
2022-10-10T18:52:33.395Z,98.33
2022-10-10T18:55:05.861Z,98.45
2022-10-10T18:57:39.055Z,98.43
2022-10-10T19:00:10.607Z,98.48
2022-10-10T19:02:40.350Z,98.55
2022-10-10T19:05:10.498Z,98.57
2022-10-10T19:07:40.219Z,98.76
2022-10-10T19:10:12.709Z,98.80
2022-10-10T19:12:47.201Z,98.95
2022-10-10T19:15:17.521Z,99.02
2022-10-10T19:17:47.218Z,99.13
2022-10-10T19:20:16.938Z,99.17
2022-10-10T19:22:46.660Z,99.20
2022-10-10T19:25:19.062Z,99.34
2022-10-10T19:27:48.896Z,99.57
2022-10-10T19:30:18.866Z,99.58
2022-10-10T19:32:48.677Z,99.57
2022-10-10T19:35:18.599Z,99.61
2022-10-10T19:37:48.347Z,99.71
2022-10-10T19:40:20.939Z,99.83
2022-10-10T19:42:50.710Z,99.89
2022-10-10T19:45:20.621Z,99.89
2022-10-10T19:47:50.353Z,100.00
2022-10-10T19:50:20.167Z,100.00
2022-10-10T19:52:49.932Z,100.00
2022-10-10T19:55:22.503Z,100.00
2022-10-10T19:57:52.228Z,100.00
2022-10-10T20:00:22.078Z,100.00
2022-10-10T20:02:51.869Z,100.00
2022-10-10T20:05:21.699Z,100.00
2022-10-10T20:07:53.472Z,100.00
2022-10-10T20:10:25.828Z,100.00
2022-10-10T20:12:55.929Z,100.00
2022-10-10T20:15:25.650Z,100.00
2022-10-10T20:17:55.432Z,100.00
2022-10-10T20:20:25.156Z,100.00
2022-10-10T20:22:54.906Z,100.00
2022-10-10T20:25:27.347Z,100.00
2022-10-10T20:27:57.076Z,100.00
2022-10-10T20:30:27.210Z,100.00
2022-10-10T20:32:56.957Z,100.00
2022-10-10T20:35:26.689Z,100.00
2022-10-10T20:37:56.435Z,100.00
2022-10-10T20:40:28.899Z,100.00
2022-10-10T20:42:58.748Z,100.00
2022-10-10T20:45:28.419Z,100.00
2022-10-10T20:47:58.130Z,100.00
2022-10-10T20:50:27.822Z,100.00
2022-10-10T20:52:57.519Z,100.00
2022-10-10T20:55:29.875Z,100.00
2022-10-10T20:57:59.570Z,100.00
2022-10-10T21:00:29.469Z,100.00
2022-10-10T21:02:59.410Z,100.00
2022-10-10T21:05:29.134Z,100.00
2022-10-10T21:07:59.768Z,100.00
2022-10-10T21:10:32.098Z,100.00
2022-10-10T21:13:01.858Z,100.00
2022-10-10T21:15:31.553Z,100.00
2022-10-10T21:18:01.281Z,100.00
2022-10-10T21:20:30.999Z,100.00
2022-10-10T21:23:00.696Z,100.00
2022-10-10T21:25:33.011Z,100.00
2022-10-10T21:28:02.776Z,100.00
2022-10-10T21:30:32.483Z,100.00
2022-10-10T21:33:02.216Z,100.00
2022-10-10T21:35:31.904Z,100.00
2022-10-10T21:38:01.618Z,100.00
2022-10-10T21:40:33.909Z,100.00
2022-10-10T21:43:03.622Z,100.00
2022-10-10T21:45:36.422Z,100.00
2022-10-10T21:48:06.573Z,100.00
2022-10-10T21:50:37.359Z,100.00
2022-10-10T21:53:11.246Z,100.00
2022-10-10T21:55:43.629Z,100.00
2022-10-10T21:58:13.361Z,100.00
2022-10-10T22:00:43.356Z,100.00
2022-10-10T22:03:13.086Z,100.00
2022-10-10T22:05:44.865Z,100.00
2022-10-10T22:08:14.589Z,100.00
2022-10-10T22:10:47.371Z,100.00
2022-10-10T22:13:17.110Z,100.00
2022-10-10T22:15:47.082Z,100.00
2022-10-10T22:18:16.820Z,100.00
2022-10-10T22:20:46.545Z,100.00
2022-10-10T22:23:16.309Z,100.00
2022-10-10T22:25:52.390Z,100.00
2022-10-10T22:28:22.671Z,100.00
2022-10-10T22:30:52.435Z,100.00
2022-10-10T22:33:22.160Z,100.00
2022-10-10T22:35:51.857Z,100.00
2022-10-10T22:38:21.562Z,100.00
2022-10-10T22:40:53.901Z,100.00
2022-10-10T22:43:26.783Z,100.00
2022-10-10T22:45:57.634Z,100.00
2022-10-10T22:48:27.612Z,100.00
2022-10-10T22:51:04.769Z,100.00
2022-10-10T22:53:34.844Z,100.00
2022-10-10T22:56:07.961Z,100.00
2022-10-10T22:58:38.189Z,100.00
2022-10-10T23:01:10.075Z,100.00
2022-10-10T23:03:40.017Z,100.00
2022-10-10T23:06:10.681Z,100.00
2022-10-10T23:08:40.874Z,100.00
2022-10-10T23:11:13.309Z,100.00
2022-10-10T23:13:43.134Z,100.00
2022-10-10T23:16:13.825Z,100.00
2022-10-10T23:18:43.568Z,100.00
2022-10-10T23:21:13.392Z,100.00
2022-10-10T23:23:43.445Z,100.00
2022-10-10T23:26:16.017Z,100.00
2022-10-10T23:28:46.780Z,100.00
2022-10-10T23:31:16.921Z,100.00
2022-10-10T23:33:47.091Z,100.00
2022-10-10T23:36:18.191Z,100.00
2022-10-10T23:38:48.287Z,100.00
2022-10-10T23:41:20.872Z,100.00
2022-10-10T23:43:50.643Z,100.00
2022-10-10T23:46:20.750Z,100.00
2022-10-10T23:48:50.506Z,100.00
2022-10-10T23:51:20.556Z,100.00
2022-10-10T23:53:50.431Z,100.00
2022-10-10T23:56:22.821Z,100.00
2022-10-10T23:58:52.569Z,100.00
